Time;durP1;ratioP1;P1;durP2;ratioP2;P2;SDS_P1;SDS_P2;PMS_P1;PMS_P2;Temp;Humidity;BMP_temperature;BMP_pressure;BME280_temperature;BME280_humidity;BME280_pressure;Samples;Min_cycle;Max_cycle;Signal;HPM_P1;HPM_P2
2023/07/19 00:01:46;;;;;;;5.00;3.77;;;17.80;99.90;;;;;;5012420;28;20505;-70
2023/07/19 00:04:13;;;;;;;6.10;4.00;;;17.80;99.90;;;;;;5012403;28;20458;-70
2023/07/19 00:06:40;;;;;;;5.40;4.27;;;17.80;99.90;;;;;;5011763;28;20469;-70
2023/07/19 00:09:08;;;;;;;6.60;3.87;;;17.70;99.90;;;;;;5012327;28;20830;-70
2023/07/19 00:11:34;;;;;;;4.20;3.50;;;17.70;99.90;;;;;;5011968;28;20470;-70
2023/07/19 00:14:05;;;;;;;4.23;3.53;;;17.70;99.90;;;;;;5012048;28;20471;-70
2023/07/19 00:16:32;;;;;;;3.67;3.23;;;17.70;99.90;;;;;;5011570;28;20461;-70
2023/07/19 00:18:59;;;;;;;4.37;3.97;;;17.70;99.90;;;;;;5011619;28;20465;-70
2023/07/19 00:21:25;;;;;;;5.77;4.03;;;17.70;99.90;;;;;;5011826;28;20488;-70
2023/07/19 00:23:52;;;;;;;5.10;3.83;;;17.70;99.90;;;;;;5012012;28;20465;-71
2023/07/19 00:26:20;;;;;;;4.80;3.60;;;17.70;99.90;;;;;;5011614;28;20475;-70
2023/07/19 00:28:48;;;;;;;3.60;3.30;;;17.70;99.90;;;;;;5011783;28;20485;-70
2023/07/19 00:31:14;;;;;;;5.43;4.30;;;17.70;99.90;;;;;;5012013;28;20593;-70
2023/07/19 00:33:41;;;;;;;8.17;3.70;;;17.70;99.90;;;;;;5011446;28;20478;-70
2023/07/19 00:36:08;;;;;;;4.50;4.10;;;17.70;99.90;;;;;;5011416;28;20472;-70
2023/07/19 00:38:35;;;;;;;3.60;3.30;;;17.70;99.90;;;;;;5011384;28;20524;-70
2023/07/19 00:41:01;;;;;;;4.30;3.80;;;17.70;99.90;;;;;;5011553;28;20468;-70
2023/07/19 00:43:30;;;;;;;4.10;3.70;;;17.70;99.90;;;;;;5011285;28;20550;-70
2023/07/19 00:45:56;;;;;;;4.17;3.77;;;17.70;99.90;;;;;;5011110;28;20490;-70
2023/07/19 00:48:24;;;;;;;7.03;4.20;;;17.70;99.90;;;;;;5011282;28;20494;-70
2023/07/19 00:50:53;;;;;;;4.70;3.60;;;17.70;99.90;;;;;;5011513;28;20466;-70
2023/07/19 00:53:20;;;;;;;3.50;3.20;;;17.70;99.90;;;;;;5011514;28;20453;-70
2023/07/19 00:55:50;;;;;;;4.13;3.73;;;17.70;99.90;;;;;;5010973;28;20852;-70
2023/07/19 00:58:18;;;;;;;3.83;3.40;;;17.70;99.90;;;;;;5011199;28;20485;-70
2023/07/19 01:00:46;;;;;;;5.03;3.40;;;17.70;99.90;;;;;;5011269;28;21165;-70
2023/07/19 01:03:13;;;;;;;3.77;3.40;;;17.70;99.90;;;;;;5011046;28;20523;-70
2023/07/19 01:05:39;;;;;;;4.33;3.57;;;17.60;99.90;;;;;;5010509;28;20465;-70
2023/07/19 01:08:06;;;;;;;3.70;3.40;;;17.60;99.90;;;;;;5011183;28;20487;-70
2023/07/19 01:10:33;;;;;;;5.37;3.97;;;17.70;99.90;;;;;;5010914;28;20494;-70
2023/07/19 01:13:04;;;;;;;5.30;3.80;;;17.60;99.90;;;;;;5011226;28;20462;-70
2023/07/19 01:15:31;;;;;;;4.30;3.47;;;17.60;99.90;;;;;;5010369;28;20465;-70
2023/07/19 01:17:59;;;;;;;4.47;4.07;;;17.60;99.90;;;;;;5011129;28;20512;-70
2023/07/19 01:20:26;;;;;;;4.97;4.40;;;17.60;99.90;;;;;;5010675;28;20469;-70
2023/07/19 01:22:54;;;;;;;4.30;3.63;;;17.60;99.90;;;;;;5010854;28;20477;-70
2023/07/19 01:25:21;;;;;;;4.47;3.77;;;17.60;99.90;;;;;;5026760;28;21192;-70
2023/07/19 01:27:49;;;;;;;3.40;2.90;;;17.60;99.90;;;;;;5002659;28;20834;-70
2023/07/19 01:30:16;;;;;;;5.07;3.83;;;17.60;99.90;;;;;;5010847;28;20466;-70
2023/07/19 01:32:44;;;;;;;5.73;3.50;;;17.60;99.90;;;;;;5010446;28;20462;-70
2023/07/19 01:35:11;;;;;;;4.37;3.30;;;17.60;99.90;;;;;;5010341;28;20463;-70
2023/07/19 01:37:39;;;;;;;4.13;3.73;;;17.60;99.90;;;;;;5010310;28;20476;-70
2023/07/19 01:40:09;;;;;;;5.70;3.23;;;17.60;99.90;;;;;;5010703;28;20462;-70
2023/07/19 01:42:36;;;;;;;4.63;3.40;;;17.50;99.90;;;;;;5010281;28;20489;-70
2023/07/19 01:45:02;;;;;;;4.70;4.07;;;17.50;99.90;;;;;;5010189;28;20461;-70
2023/07/19 01:47:29;;;;;;;10.90;3.90;;;17.50;99.90;;;;;;5010157;28;20992;-70
2023/07/19 01:49:56;;;;;;;4.20;3.30;;;17.40;99.90;;;;;;5010648;28;20467;-70
2023/07/19 01:52:22;;;;;;;3.97;3.57;;;17.40;99.90;;;;;;5010597;28;20468;-70
2023/07/19 01:54:49;;;;;;;3.77;3.43;;;17.40;99.90;;;;;;5009751;28;20469;-70
2023/07/19 01:57:17;;;;;;;4.43;3.70;;;17.30;99.90;;;;;;5010327;28;20487;-70
2023/07/19 01:59:44;;;;;;;5.90;3.73;;;17.30;99.90;;;;;;5010003;28;20467;-70
2023/07/19 02:02:11;;;;;;;3.33;3.03;;;17.30;99.90;;;;;;5010606;28;20481;-70
2023/07/19 02:04:37;;;;;;;7.83;3.73;;;17.30;99.90;;;;;;5009914;28;20465;-70
2023/07/19 02:07:05;;;;;;;4.33;3.43;;;17.20;99.90;;;;;;5010110;28;20489;-70
2023/07/19 02:09:31;;;;;;;3.67;3.13;;;17.20;99.90;;;;;;5010280;28;20462;-70
2023/07/19 02:11:58;;;;;;;3.67;3.23;;;17.20;99.90;;;;;;5010274;28;21011;-70
2023/07/19 02:14:26;;;;;;;4.23;3.43;;;17.20;99.90;;;;;;5010144;28;20461;-70
2023/07/19 02:16:53;;;;;;;6.50;4.00;;;17.10;99.90;;;;;;5001876;28;20493;-70
2023/07/19 02:19:19;;;;;;;3.77;3.37;;;17.10;99.90;;;;;;5010303;28;20463;-70
2023/07/19 02:21:46;;;;;;;4.67;3.73;;;17.00;99.90;;;;;;5009915;28;20866;-70
2023/07/19 02:24:13;;;;;;;5.60;3.50;;;17.00;99.90;;;;;;5010045;28;20470;-70
2023/07/19 02:26:39;;;;;;;3.70;2.97;;;17.00;99.90;;;;;;5009560;28;20461;-70
2023/07/19 02:29:06;;;;;;;3.80;3.37;;;17.00;99.90;;;;;;5010160;28;20957;-70
2023/07/19 02:31:35;;;;;;;5.33;4.27;;;17.00;99.90;;;;;;5009852;28;20465;-70
2023/07/19 02:34:02;;;;;;;4.10;3.10;;;17.00;99.90;;;;;;5010045;28;20977;-70
2023/07/19 02:36:29;;;;;;;4.07;3.67;;;16.90;99.90;;;;;;5009503;28;20975;-70
2023/07/19 02:38:56;;;;;;;6.53;3.47;;;16.90;99.90;;;;;;5009942;28;20461;-70
2023/07/19 02:41:23;;;;;;;4.47;3.33;;;16.90;99.90;;;;;;5010029;28;20461;-70
2023/07/19 02:43:49;;;;;;;4.83;3.50;;;16.90;99.90;;;;;;5013093;28;20849;-70
2023/07/19 02:46:16;;;;;;;4.40;3.10;;;16.80;99.90;;;;;;5013355;28;20466;-70
2023/07/19 02:48:44;;;;;;;4.60;3.60;;;16.80;99.90;;;;;;5013471;28;20481;-70
2023/07/19 02:51:11;;;;;;;3.83;3.43;;;16.80;99.90;;;;;;5013863;28;20823;-70
2023/07/19 02:53:38;;;;;;;4.77;3.70;;;16.80;99.90;;;;;;5013297;28;20465;-70
2023/07/19 02:56:05;;;;;;;4.03;3.63;;;16.80;99.90;;;;;;5013297;28;20839;-70
2023/07/19 02:58:32;;;;;;;4.03;3.50;;;16.80;99.90;;;;;;5013276;28;20493;-70
2023/07/19 03:00:59;;;;;;;4.97;3.57;;;16.80;99.90;;;;;;5013402;28;21155;-70
2023/07/19 03:03:25;;;;;;;6.10;3.20;;;16.70;99.90;;;;;;5013597;28;20484;-70
2023/07/19 03:05:53;;;;;;;5.80;3.93;;;16.70;99.90;;;;;;5012634;28;20603;-70
2023/07/19 03:08:20;;;;;;;4.20;3.50;;;16.70;99.90;;;;;;5013319;28;20484;-70
2023/07/19 03:10:48;;;;;;;6.60;3.87;;;16.70;99.90;;;;;;5013078;28;20461;-70
2023/07/19 03:13:15;;;;;;;3.90;3.50;;;16.70;99.90;;;;;;5013628;28;20457;-70
2023/07/19 03:15:46;;;;;;;5.93;4.70;;;16.60;99.90;;;;;;5012564;28;20468;-70
2023/07/19 03:18:13;;;;;;;4.50;3.67;;;16.60;99.90;;;;;;5013206;28;20491;-70
2023/07/19 03:20:40;;;;;;;3.80;3.37;;;16.60;99.90;;;;;;5012879;28;20851;-70
2023/07/19 03:23:08;;;;;;;4.60;3.90;;;16.60;99.90;;;;;;5013220;28;20493;-70
2023/07/19 03:25:35;;;;;;;5.93;4.30;;;16.60;99.90;;;;;;5012392;28;20466;-69
2023/07/19 03:28:02;;;;;;;3.50;3.20;;;16.50;99.90;;;;;;5013167;28;20481;-70
2023/07/19 03:30:28;;;;;;;3.93;3.23;;;16.60;99.90;;;;;;5013281;28;20472;-70
2023/07/19 03:32:55;;;;;;;4.27;3.40;;;16.60;99.90;;;;;;5013065;28;20963;-70
2023/07/19 03:35:22;;;;;;;5.53;3.50;;;16.50;99.90;;;;;;5012123;28;20461;-70
2023/07/19 03:37:48;;;;;;;5.20;3.90;;;16.50;99.90;;;;;;5011780;28;20481;-69
2023/07/19 03:40:16;;;;;;;5.20;3.70;;;16.60;99.90;;;;;;5012418;28;20843;-70
2023/07/19 03:42:43;;;;;;;3.60;3.30;;;16.50;99.90;;;;;;5011873;28;21107;-70
2023/07/19 03:45:11;;;;;;;4.63;4.05;;;16.50;99.90;;;;;;5010545;28;20447;-70
2023/07/19 03:47:39;;;;;;;4.73;4.30;;;16.60;99.90;;;;;;5011598;28;20229;-70
2023/07/19 03:50:07;;;;;;;3.93;3.53;;;16.60;99.90;;;;;;5012716;28;20460;-70
2023/07/19 03:52:34;;;;;;;4.27;3.87;;;16.50;99.90;;;;;;5011752;28;20980;-70
2023/07/19 03:55:01;;;;;;;6.30;4.80;;;16.60;99.90;;;;;;5008010;28;20473;-70
2023/07/19 03:57:29;;;;;;;4.80;3.50;;;16.60;99.90;;;;;;5012043;28;21027;-70
2023/07/19 03:59:56;;;;;;;4.90;4.27;;;16.50;99.90;;;;;;5011685;28;20464;-70
2023/07/19 04:02:23;;;;;;;5.70;4.27;;;16.50;99.90;;;;;;5012037;28;20863;-70
2023/07/19 04:04:50;;;;;;;4.67;4.07;;;16.50;99.90;;;;;;5011013;28;20489;-70
2023/07/19 04:07:17;;;;;;;4.43;3.53;;;16.50;99.90;;;;;;5011776;28;20481;-70
2023/07/19 04:09:44;;;;;;;4.67;4.27;;;16.60;99.90;;;;;;5011382;28;20465;-70
2023/07/19 04:12:11;;;;;;;4.40;3.70;;;16.50;99.90;;;;;;5011660;28;20493;-70
2023/07/19 04:14:39;;;;;;;3.70;3.40;;;16.50;99.90;;;;;;5011521;28;20472;-70
2023/07/19 04:17:06;;;;;;;5.00;3.83;;;16.50;99.90;;;;;;5011125;28;20477;-70
2023/07/19 04:19:33;;;;;;;4.90;4.40;;;16.50;99.90;;;;;;5011693;28;20891;-70
2023/07/19 04:22:00;;;;;;;4.77;4.30;;;16.50;99.90;;;;;;5010760;28;20467;-70
2023/07/19 04:24:27;;;;;;;4.40;3.30;;;16.50;99.90;;;;;;5070128;23;20497;-72
2023/07/19 04:26:53;;;;;;;4.77;3.60;;;16.50;99.90;;;;;;5011124;28;20477;-71
2023/07/19 04:29:21;;;;;;;4.83;4.10;;;16.50;99.90;;;;;;5005749;28;20463;-72
2023/07/19 04:31:49;;;;;;;6.20;4.70;;;16.50;99.90;;;;;;4999116;28;20548;-72
2023/07/19 04:34:16;;;;;;;4.67;3.47;;;16.50;99.90;;;;;;4991486;28;20743;-72
2023/07/19 04:36:44;;;;;;;5.93;3.40;;;16.60;99.90;;;;;;4990539;28;20485;-72
2023/07/19 04:39:11;;;;;;;4.20;3.40;;;16.60;99.90;;;;;;4991661;28;20942;-71
2023/07/19 04:41:38;;;;;;;4.40;3.67;;;16.60;99.90;;;;;;4991079;28;20464;-72
2023/07/19 04:44:05;;;;;;;4.23;3.77;;;16.60;99.90;;;;;;4990602;28;20585;-71
2023/07/19 04:46:31;;;;;;;3.90;3.60;;;16.60;99.90;;;;;;4991181;28;20624;-71
2023/07/19 04:48:59;;;;;;;3.97;3.40;;;16.70;99.90;;;;;;4991662;28;20469;-71
2023/07/19 04:51:26;;;;;;;3.80;3.40;;;16.70;99.90;;;;;;4991964;28;20841;-71
2023/07/19 04:53:53;;;;;;;5.30;3.83;;;16.70;99.90;;;;;;5001426;28;20457;-73
2023/07/19 04:56:19;;;;;;;4.70;4.07;;;16.80;99.90;;;;;;5011216;28;20488;-71
2023/07/19 04:58:46;;;;;;;4.37;3.97;;;16.80;99.90;;;;;;5010913;28;20497;-73
2023/07/19 05:01:13;;;;;;;4.20;3.70;;;16.90;99.90;;;;;;5011378;28;20492;-73
2023/07/19 05:03:40;;;;;;;4.23;3.83;;;16.90;99.90;;;;;;5011010;28;20529;-72
2023/07/19 05:06:08;;;;;;;5.30;3.57;;;16.90;99.90;;;;;;5010241;28;20523;-73
2023/07/19 05:08:35;;;;;;;5.13;3.60;;;16.90;99.90;;;;;;5011212;28;20487;-73
2023/07/19 05:11:03;;;;;;;5.50;4.10;;;17.00;99.90;;;;;;5002780;28;20894;-73
2023/07/19 05:13:29;;;;;;;5.47;3.50;;;17.00;99.90;;;;;;5011006;28;20471;-72
2023/07/19 05:15:56;;;;;;;4.30;3.40;;;17.10;99.90;;;;;;5010207;28;20465;-72
2023/07/19 05:18:23;;;;;;;6.13;4.17;;;17.20;99.90;;;;;;5010922;28;20485;-72
2023/07/19 05:20:50;;;;;;;4.27;3.87;;;17.20;99.90;;;;;;5010643;28;20848;-72
2023/07/19 05:23:18;;;;;;;3.90;3.37;;;17.20;99.90;;;;;;5010694;28;20481;-72
2023/07/19 05:25:46;;;;;;;4.70;3.57;;;17.30;99.90;;;;;;5010633;28;20892;-73
2023/07/19 05:28:13;;;;;;;4.87;3.53;;;17.30;99.90;;;;;;5010684;28;21008;-72
2023/07/19 05:30:39;;;;;;;5.57;3.93;;;17.30;99.90;;;;;;5010679;28;20840;-73
2023/07/19 05:33:06;;;;;;;7.03;3.90;;;17.40;99.90;;;;;;5010580;28;20473;-73
2023/07/19 05:35:33;;;;;;;4.20;3.67;;;17.50;99.90;;;;;;5010294;28;20457;-73
2023/07/19 05:38:00;;;;;;;8.80;4.47;;;17.50;99.90;;;;;;5010481;28;20485;-72
2023/07/19 05:40:28;;;;;;;5.80;3.53;;;17.60;99.90;;;;;;5010679;28;20838;-72
2023/07/19 05:42:56;;;;;;;4.90;4.27;;;17.60;99.90;;;;;;5010569;28;20480;-73
2023/07/19 05:45:22;;;;;;;4.80;3.63;;;17.70;99.90;;;;;;5010192;28;20470;-73
2023/07/19 05:47:49;;;;;;;4.97;3.57;;;17.80;99.90;;;;;;5010117;28;20489;-72
2023/07/19 05:50:16;;;;;;;4.77;3.87;;;17.90;99.90;;;;;;5010556;28;20461;-73
2023/07/19 05:52:43;;;;;;;4.40;3.57;;;18.00;99.90;;;;;;5010363;28;20473;-73
2023/07/19 05:55:10;;;;;;;4.87;3.47;;;18.00;99.90;;;;;;5009854;28;20470;-72
2023/07/19 05:57:39;;;;;;;5.57;3.50;;;18.10;99.90;;;;;;5010259;28;20487;-73
2023/07/19 06:00:10;;;;;;;4.87;3.27;;;18.20;99.90;;;;;;5010184;28;20459;-73
2023/07/19 06:02:37;;;;;;;4.13;3.70;;;18.30;99.90;;;;;;5010264;28;20894;-72
2023/07/19 06:05:03;;;;;;;4.93;4.43;;;18.30;99.90;;;;;;5009581;28;20957;-73
2023/07/19 06:07:30;;;;;;;4.93;3.40;;;18.40;99.90;;;;;;5010323;28;20495;-73
2023/07/19 06:09:57;;;;;;;4.30;3.10;;;18.40;99.90;;;;;;5009862;28;20467;-72
2023/07/19 06:12:24;;;;;;;4.13;3.60;;;18.50;99.90;;;;;;5010458;28;20464;-73
2023/07/19 06:14:52;;;;;;;3.40;3.10;;;18.50;99.90;;;;;;5009279;28;20861;-73
2023/07/19 06:17:18;;;;;;;4.60;3.40;;;18.60;99.90;;;;;;5011558;28;20487;-73
2023/07/19 06:19:45;;;;;;;4.63;3.20;;;18.70;99.90;;;;;;5014060;28;20848;-73
2023/07/19 06:22:12;;;;;;;2.70;2.50;;;18.70;99.90;;;;;;5014216;28;20501;-73
2023/07/19 06:24:39;;;;;;;5.27;3.40;;;18.80;99.90;;;;;;5013859;28;20475;-73
2023/07/19 06:27:05;;;;;;;3.90;3.13;;;18.80;99.90;;;;;;5014150;28;20830;-73
2023/07/19 06:29:32;;;;;;;5.83;3.47;;;18.90;99.90;;;;;;5014486;28;20473;-73
2023/07/19 06:32:00;;;;;;;3.90;3.13;;;18.90;99.90;;;;;;5013946;28;20470;-73
2023/07/19 06:34:27;;;;;;;5.13;3.70;;;19.00;99.90;;;;;;5014203;28;20459;-73
2023/07/19 06:36:54;;;;;;;3.10;2.80;;;19.10;99.90;;;;;;5013604;28;20491;-72
2023/07/19 06:39:20;;;;;;;7.40;5.10;;;19.10;99.90;;;;;;5014255;28;20464;-72
2023/07/19 06:41:47;;;;;;;6.20;3.80;;;19.10;99.90;;;;;;5013921;28;20461;-72
2023/07/19 06:44:14;;;;;;;4.03;3.10;;;19.20;99.90;;;;;;5013672;28;20844;-73
2023/07/19 06:46:40;;;;;;;4.53;3.10;;;19.30;99.90;;;;;;5013753;28;20462;-73
2023/07/19 06:49:08;;;;;;;4.03;3.10;;;19.40;99.90;;;;;;5013690;28;20468;-73
2023/07/19 06:51:35;;;;;;;4.20;3.53;;;19.50;99.90;;;;;;5013988;28;20471;-73
2023/07/19 06:54:02;;;;;;;5.90;3.70;;;19.50;99.90;;;;;;5013587;28;20547;-73
2023/07/19 06:56:29;;;;;;;3.30;2.83;;;19.60;99.90;;;;;;5013691;28;20468;-73
2023/07/19 06:58:55;;;;;;;4.37;3.20;;;19.60;99.90;;;;;;5013460;28;20465;-72
2023/07/19 07:01:22;;;;;;;4.07;3.67;;;19.70;99.90;;;;;;5013899;28;20966;-72
2023/07/19 07:03:50;;;;;;;3.30;3.00;;;19.80;99.90;;;;;;5013494;28;21007;-72
2023/07/19 07:06:18;;;;;;;5.33;3.00;;;19.90;99.90;;;;;;5013186;28;20461;-73
2023/07/19 07:08:45;;;;;;;3.60;3.00;;;20.00;99.90;;;;;;5013522;28;20855;-73
2023/07/19 07:11:12;;;;;;;3.17;2.87;;;20.20;99.90;;;;;;5013537;28;20474;-73
2023/07/19 07:13:39;;;;;;;7.23;3.43;;;20.30;99.90;;;;;;5013565;28;20463;-73
2023/07/19 07:16:06;;;;;;;4.87;3.40;;;20.40;99.90;;;;;;5013004;28;20522;-73
2023/07/19 07:18:32;;;;;;;3.93;3.53;;;20.50;99.90;;;;;;5013221;28;20994;-73
2023/07/19 07:20:59;;;;;;;3.30;3.00;;;20.60;99.90;;;;;;5013179;28;20465;-73
2023/07/19 07:23:27;;;;;;;3.00;2.70;;;20.70;99.90;;;;;;5013296;28;20844;-73
2023/07/19 07:25:54;;;;;;;2.57;2.37;;;20.80;99.90;;;;;;5012703;28;20457;-73
2023/07/19 07:28:22;;;;;;;4.33;2.50;;;20.90;99.90;;;;;;4996729;28;20485;-73
2023/07/19 07:30:48;;;;;;;4.97;3.13;;;21.00;99.90;;;;;;5013059;28;20965;-73
2023/07/19 07:33:15;;;;;;;2.47;2.27;;;21.20;99.90;;;;;;5012987;28;20527;-73
2023/07/19 07:35:42;;;;;;;2.70;2.17;;;21.30;99.90;;;;;;5012820;28;20969;-73
2023/07/19 07:38:09;;;;;;;2.77;2.57;;;21.40;99.90;;;;;;5013015;28;20481;-73
2023/07/19 07:40:38;;;;;;;3.07;2.10;;;21.60;99.90;;;;;;5013094;28;20841;-73
2023/07/19 07:43:04;;;;;;;2.70;2.30;;;21.70;99.90;;;;;;5012714;28;20462;-73
2023/07/19 07:45:31;;;;;;;3.20;2.37;;;21.80;99.90;;;;;;5012511;28;20481;-73
2023/07/19 07:47:58;;;;;;;2.67;2.30;;;21.90;99.90;;;;;;5012536;28;20482;-73
2023/07/19 07:50:25;;;;;;;3.70;2.30;;;22.00;99.90;;;;;;5012887;28;20461;-72
2023/07/19 07:52:52;;;;;;;2.60;2.30;;;22.10;99.90;;;;;;5012788;28;20954;-73
2023/07/19 07:55:18;;;;;;;2.50;1.97;;;22.10;99.90;;;;;;5012188;28;20458;-73
2023/07/19 07:57:46;;;;;;;2.47;2.13;;;22.20;99.90;;;;;;5012790;28;20487;-72
2023/07/19 08:00:15;;;;;;;1.87;1.63;;;22.30;99.90;;;;;;5012465;28;20470;-72
2023/07/19 08:02:41;;;;;;;1.90;1.60;;;22.40;99.90;;;;;;5012047;28;20963;-73
2023/07/19 08:05:09;;;;;;;1.70;1.60;;;22.50;99.90;;;;;;5012013;28;20492;-73
2023/07/19 08:07:36;;;;;;;2.80;1.90;;;22.50;99.90;;;;;;5012426;28;20571;-73
2023/07/19 08:10:03;;;;;;;1.97;1.77;;;22.60;99.90;;;;;;5012136;28;20468;-72
2023/07/19 08:12:29;;;;;;;2.93;1.70;;;22.60;99.90;;;;;;5012520;28;20938;-73
2023/07/19 08:14:57;;;;;;;3.30;2.30;;;22.60;99.90;;;;;;5011791;28;20459;-73
2023/07/19 08:17:24;;;;;;;1.83;1.60;;;22.60;99.90;;;;;;5012119;28;20855;-73
2023/07/19 08:19:51;;;;;;;4.07;1.60;;;22.60;99.90;;;;;;5005763;28;20484;-72
2023/07/19 08:22:29;;;;;;;1.97;1.50;;;22.50;99.90;;;;;;5003884;28;20466;-72
2023/07/19 08:24:56;;;;;;;2.13;1.60;;;22.50;99.90;;;;;;4991617;28;20472;-73
2023/07/19 08:27:24;;;;;;;3.50;1.80;;;22.60;99.90;;;;;;4992168;28;20485;-72
2023/07/19 08:29:52;;;;;;;1.87;1.60;;;22.70;99.90;;;;;;4992045;28;20959;-73
2023/07/19 08:32:20;;;;;;;5.20;2.13;;;22.80;99.90;;;;;;4992284;28;20491;-72
2023/07/19 08:34:50;;;;;;;6.13;1.80;;;23.00;99.90;;;;;;4997905;28;20511;-72
2023/07/19 08:37:18;;;;;;;2.27;1.73;;;23.10;99.90;;;;;;5002996;28;20480;-73
2023/07/19 08:39:45;;;;;;;1.63;1.50;;;23.20;99.90;;;;;;5011770;28;20563;-73
2023/07/19 08:42:12;;;;;;;3.40;1.40;;;23.30;99.90;;;;;;5011325;28;20464;-73
2023/07/19 08:44:39;;;;;;;1.60;1.43;;;23.30;99.90;;;;;;5006208;28;20490;-73
2023/07/19 08:47:11;;;;;;;1.90;1.40;;;23.40;99.90;;;;;;4991994;28;20481;-73
2023/07/19 08:49:40;;;;;;;2.10;1.40;;;23.50;99.90;;;;;;5011651;28;20480;-72
2023/07/19 08:52:08;;;;;;;1.50;1.40;;;23.60;99.90;;;;;;5011462;28;20471;-73
2023/07/19 08:54:34;;;;;;;1.60;1.47;;;23.70;99.90;;;;;;5011148;28;20830;-73
2023/07/19 08:57:04;;;;;;;1.70;1.57;;;23.80;99.90;;;;;;5010863;28;20478;-73
2023/07/19 08:59:31;;;;;;;2.57;1.70;;;23.90;99.90;;;;;;5012593;28;20479;-73
2023/07/19 09:01:58;;;;;;;1.70;1.53;;;24.00;99.90;;;;;;5011688;28;20945;-73
2023/07/19 09:04:25;;;;;;;1.67;1.57;;;24.10;99.90;;;;;;5010816;28;20492;-73
2023/07/19 09:06:53;;;;;;;3.10;1.60;;;24.20;99.90;;;;;;5010445;28;20484;-73
2023/07/19 09:09:20;;;;;;;6.20;1.83;;;24.30;99.90;;;;;;5011178;28;20475;-73
2023/07/19 09:11:48;;;;;;;2.60;2.30;;;24.30;99.90;;;;;;5010998;28;20471;-73
2023/07/19 09:14:15;;;;;;;1.87;1.67;;;24.30;99.90;;;;;;4994200;28;20458;-73
2023/07/19 09:16:42;;;;;;;1.80;1.57;;;24.40;99.90;;;;;;4991091;28;20463;-73
2023/07/19 09:19:09;;;;;;;1.80;1.70;;;24.50;99.90;;;;;;4991076;28;20466;-73
2023/07/19 09:21:38;;;;;;;1.57;1.47;;;24.50;99.90;;;;;;4991602;28;20463;-73
2023/07/19 09:24:08;;;;;;;3.17;1.80;;;24.60;99.90;;;;;;4991111;28;20534;-73
2023/07/19 09:26:50;;;;;;;2.80;1.80;;;24.70;99.90;;;;;;5002647;28;20545;-72
2023/07/19 09:29:17;;;;;;;1.70;1.60;;;24.80;99.90;;;;;;5010685;28;21293;-72
2023/07/19 09:31:54;;;;;;;3.03;1.60;;;24.90;99.90;;;;;;5010731;28;20463;-73
2023/07/19 09:34:22;;;;;;;2.50;1.67;;;24.80;99.10;;;;;;5010551;28;20456;-72
2023/07/19 09:36:51;;;;;;;2.00;1.43;;;24.80;99.20;;;;;;5010220;28;20542;-73
2023/07/19 09:39:19;;;;;;;3.10;1.50;;;24.70;99.90;;;;;;5010521;28;20466;-73
2023/07/19 09:41:46;;;;;;;1.70;1.37;;;24.70;99.90;;;;;;5010096;28;20982;-73
2023/07/19 09:44:15;;;;;;;1.90;1.70;;;24.80;99.90;;;;;;5010398;28;20486;-73
2023/07/19 09:46:43;;;;;;;1.87;1.50;;;24.90;99.90;;;;;;5010217;28;20836;-73
2023/07/19 09:49:10;;;;;;;2.60;1.50;;;25.10;99.60;;;;;;5010366;28;20467;-73
2023/07/19 09:51:40;;;;;;;2.87;1.50;;;25.10;99.90;;;;;;5009759;28;20466;-73
2023/07/19 09:54:10;;;;;;;1.80;1.30;;;25.30;99.90;;;;;;5010510;28;20518;-73
2023/07/19 09:56:39;;;;;;;4.73;1.73;;;25.40;99.90;;;;;;5002336;28;20471;-73
2023/07/19 09:59:08;;;;;;;2.40;2.00;;;25.60;99.90;;;;;;5010357;28;20503;-73
2023/07/19 10:01:36;;;;;;;2.40;2.00;;;25.70;99.90;;;;;;5010302;28;20962;-73
2023/07/19 10:04:22;;;;;;;1.90;1.50;;;25.90;99.90;;;;;;5010291;28;20495;-72
2023/07/19 10:06:49;;;;;;;1.50;1.37;;;26.10;99.90;;;;;;5001608;28;20491;-72
2023/07/19 10:09:32;;;;;;;2.33;1.83;;;26.20;99.90;;;;;;4990649;28;20545;-73
2023/07/19 10:12:01;;;;;;;3.57;1.50;;;26.30;97.80;;;;;;4996870;28;20530;-73
2023/07/19 10:14:29;;;;;;;2.07;1.60;;;26.40;99.40;;;;;;4999587;28;20496;-73
2023/07/19 10:16:57;;;;;;;1.70;1.57;;;26.50;97.50;;;;;;5001607;28;21020;-72
2023/07/19 10:19:24;;;;;;;3.63;2.00;;;26.50;99.60;;;;;;4999891;28;20480;-73
2023/07/19 10:22:05;;;;;;;2.13;1.73;;;26.60;99.90;;;;;;4990147;28;20473;-73
2023/07/19 10:24:33;;;;;;;2.00;1.60;;;26.60;99.80;;;;;;4990269;28;20513;-73
2023/07/19 10:27:06;;;;;;;1.90;1.70;;;26.60;99.90;;;;;;4990006;28;20488;-73
2023/07/19 10:29:40;;;;;;;2.13;1.63;;;26.70;99.90;;;;;;4990119;28;20465;-73
2023/07/19 10:32:08;;;;;;;2.40;1.50;;;26.80;99.90;;;;;;4990069;28;20843;-72
2023/07/19 10:34:35;;;;;;;2.30;1.30;;;26.80;97.40;;;;;;4990175;28;20945;-73
2023/07/19 10:37:03;;;;;;;2.60;1.50;;;26.90;99.60;;;;;;4989555;28;20482;-73
2023/07/19 10:39:30;;;;;;;4.00;2.10;;;27.10;97.70;;;;;;4990185;28;20902;-73
2023/07/19 10:41:57;;;;;;;1.60;1.50;;;27.00;96.90;;;;;;4990199;28;20561;-71
2023/07/19 10:44:26;;;;;;;2.20;1.47;;;27.00;98.60;;;;;;4989334;28;20462;-73
2023/07/19 10:46:53;;;;;;;3.53;2.00;;;27.00;97.10;;;;;;4989850;28;20548;-73
2023/07/19 10:49:21;;;;;;;2.50;1.87;;;27.00;98.40;;;;;;4990052;28;21109;-71
2023/07/19 10:51:55;;;;;;;3.33;1.80;;;26.90;98.60;;;;;;4989850;28;20465;-73
2023/07/19 10:54:22;;;;;;;2.50;1.80;;;26.80;98.40;;;;;;4990056;28;20474;-73
2023/07/19 10:56:50;;;;;;;5.00;2.27;;;26.70;98.30;;;;;;4989252;28;20490;-73
2023/07/19 10:59:17;;;;;;;2.10;1.80;;;26.60;99.00;;;;;;4989649;28;20462;-74
2023/07/19 11:01:48;;;;;;;5.87;2.10;;;26.50;99.10;;;;;;4990127;28;20474;-73
2023/07/19 11:04:18;;;;;;;5.70;2.03;;;26.30;98.80;;;;;;4992625;28;20470;-73
2023/07/19 11:06:55;;;;;;;2.30;1.87;;;26.30;98.60;;;;;;5132597;23;20454;-73
2023/07/19 11:09:23;;;;;;;2.00;1.57;;;26.30;99.90;;;;;;4973888;28;20463;-73
2023/07/19 11:11:50;;;;;;;2.53;2.00;;;26.50;99.50;;;;;;4974147;28;20458;-73
2023/07/19 11:14:30;;;;;;;2.10;1.80;;;26.70;98.50;;;;;;4973556;28;20518;-73
2023/07/19 11:16:59;;;;;;;2.27;2.07;;;26.70;97.80;;;;;;4973578;28;20483;-73
2023/07/19 11:19:33;;;;;;;2.53;2.20;;;26.70;98.60;;;;;;4973464;28;20466;-73
2023/07/19 11:22:00;;;;;;;2.27;2.07;;;26.70;99.00;;;;;;4973916;28;20866;-73
2023/07/19 11:24:35;;;;;;;2.57;2.00;;;26.70;98.10;;;;;;4973686;28;20455;-73
2023/07/19 11:27:01;;;;;;;2.60;1.97;;;26.70;96.60;;;;;;4973936;28;20497;-73
2023/07/19 11:29:30;;;;;;;1.90;1.70;;;26.80;95.60;;;;;;5136913;23;20498;-69
2023/07/19 11:32:13;;;;;;;2.90;1.77;;;26.80;94.30;;;;;;4995956;28;20963;-68
2023/07/19 11:34:46;;;;;;;2.23;2.03;;;26.90;97.60;;;;;;5012326;28;20488;-68
2023/07/19 11:37:20;;;;;;;3.17;2.30;;;26.80;97.30;;;;;;5005331;28;20975;-69
2023/07/19 11:39:48;;;;;;;3.73;2.23;;;27.00;98.20;;;;;;4996205;28;20461;-68
2023/07/19 11:42:15;;;;;;;3.33;2.10;;;27.10;96.70;;;;;;5012665;28;20547;-68
2023/07/19 11:44:44;;;;;;;3.43;2.37;;;27.10;96.40;;;;;;5011313;28;20982;-68
2023/07/19 11:47:12;;;;;;;2.37;2.17;;;27.20;94.20;;;;;;5012291;28;20489;-68
2023/07/19 11:49:39;;;;;;;2.30;2.10;;;27.10;96.90;;;;;;5012083;28;20458;-68
2023/07/19 11:52:07;;;;;;;4.30;2.20;;;27.10;97.50;;;;;;5012325;28;20539;-68
2023/07/19 11:54:33;;;;;;;2.77;2.20;;;27.10;98.70;;;;;;5012248;28;20461;-68
2023/07/19 11:57:00;;;;;;;2.47;2.00;;;27.20;95.60;;;;;;5005618;28;20492;-68
2023/07/19 11:59:27;;;;;;;2.00;1.80;;;27.20;97.30;;;;;;5011257;28;20545;-69
2023/07/19 12:01:54;;;;;;;3.23;2.17;;;27.20;98.30;;;;;;5012003;28;20835;-68
2023/07/19 12:04:22;;;;;;;3.70;2.20;;;27.10;98.40;;;;;;5011670;28;20468;-69
2023/07/19 12:06:49;;;;;;;2.33;2.10;;;27.00;99.70;;;;;;4997361;28;20516;-68
2023/07/19 12:09:16;;;;;;;2.20;2.00;;;26.90;95.10;;;;;;5012003;28;20474;-68
2023/07/19 12:11:43;;;;;;;2.50;2.10;;;26.80;96.60;;;;;;5010768;28;20461;-68
2023/07/19 12:14:12;;;;;;;2.20;2.00;;;26.90;99.00;;;;;;5011406;28;20470;-68
2023/07/19 12:16:39;;;;;;;2.30;2.10;;;27.10;95.90;;;;;;5010390;28;20957;-68
2023/07/19 12:19:06;;;;;;;3.13;2.40;;;27.10;96.40;;;;;;5011668;28;20465;-68
2023/07/19 12:21:34;;;;;;;2.17;1.97;;;27.10;93.70;;;;;;5011708;28;20832;-68
2023/07/19 12:24:01;;;;;;;2.30;1.97;;;27.10;94.80;;;;;;5011227;28;20464;-68
2023/07/19 12:26:28;;;;;;;2.43;2.20;;;27.20;97.40;;;;;;5011043;28;20481;-68
2023/07/19 12:28:54;;;;;;;2.27;2.07;;;27.30;95.40;;;;;;5011201;28;20480;-68
2023/07/19 12:31:22;;;;;;;4.40;2.60;;;27.50;96.30;;;;;;5011862;28;20473;-69
2023/07/19 12:33:49;;;;;;;2.80;2.27;;;27.50;93.90;;;;;;5010512;28;20465;-69
2023/07/19 12:36:16;;;;;;;2.80;2.50;;;27.50;96.10;;;;;;5011098;28;20512;-69
2023/07/19 12:38:45;;;;;;;3.83;2.30;;;27.50;95.80;;;;;;5010835;28;21019;-69
2023/07/19 12:41:11;;;;;;;2.90;2.23;;;27.50;95.70;;;;;;5011268;28;20497;-68
2023/07/19 12:43:38;;;;;;;3.40;2.20;;;27.40;95.90;;;;;;5011134;28;20473;-68
2023/07/19 12:46:05;;;;;;;2.50;2.17;;;27.50;95.70;;;;;;5010588;28;20488;-68
2023/07/19 12:48:31;;;;;;;2.67;2.20;;;27.70;96.10;;;;;;5010547;28;20869;-69
2023/07/19 12:50:58;;;;;;;3.07;2.80;;;27.70;95.30;;;;;;5011443;28;20916;-69